Αρχική σελίδα
METAR-TAF:

METAR-TAF

Αεροδρόμια :

Alice Springs, Αυστραλία

γεωγραφικό πλάτος: 23-48S, γεωγραφικό μήκος: 133-53E, υψόμετρο: 545 μ

Παρών καιρός

Η αναφορά έγινε 34 λεπτά πριν, στις 04:00 UTC
Άνεμος 10 kt από ΝA
Θερμοκρασία 22°C
Υγρασία 31%
Πίεση 1023 hPa
Ορατότητα 10 χλμ και άνω

METAR: YBAS 250400Z AUTO 13010KT 9999 // NCD 22/04 Q1023 RF00.0/000.0

Χρόνος: 14:04 (04:34 UTC)

Πρόγνωση Καιρού

Η αναφορά έγινε 5 ώρες και 15 λεπτά πριν, στις 23:19 UTC
Η πρόγνωση ισχύει από τις 25 στις 00 UTC έως τις 26 στις 00 UTC
Άνεμος 14 kt από ΝA
Ορατότητα 10 χλμ και άνω
Δεν υπάρχουν νέφη με βάση κάτω από τα 1500 μ. και δεν υπάρχουν νέφη σωρειτομελανίτες.
Από 25 στις 0900 UTC
Άνεμος 8 kt από ΝA
Ορατότητα 10 χλμ και άνω
Δεν υπάρχουν νέφη με βάση κάτω από τα 1500 μ. και δεν υπάρχουν νέφη σωρειτομελανίτες.

TAF: YBAS 242319Z 2500/2600 14014KT CAVOK FM250900 13008KT CAVOK

Μετεωρολογικές αναφορές και προγνώσεις για περισσότερα από 4000 αεροδρόμια (δελτία METAR και TAF).

Οι διαθέσιμοι σταθμοί απεικονίζονται στο χάρτη με κίτρινες και κόκκινες κουκκίδες.

Μετακινήστε το ποντίκι πάνω από τις κουκκίδες για να δείτε το όνομα του σταθμού.

Στη συνέχεια, κάντε κλικ για να δείτε τις μετεωρολογικές αναφορές και τις προγνώσεις καιρού.

Για να αλλάξετε το χάρτη: κάντε κλικ στα πράσινα κουμπιά με τον μαύρο σταυρό για να ζουμάρετε, στο πράσινο κουμπί με την παύλα για να αφαιρέσετε το ζουμ ή στα πράσινα βέλη για να αντιπαραβάλλετε χάρτες.


METAR-TAF: